Time;durP1;ratioP1;P1;durP2;ratioP2;P2;SDS_P1;SDS_P2;PMS_P1;PMS_P2;Temp;Humidity;BMP_temperature;BMP_pressure;BME280_temperature;BME280_humidity;BME280_pressure;Samples;Min_cycle;Max_cycle;Signal;HPM_P1;HPM_P2
2022/09/09 00:02:19;;;;;;;1.57;0.80;;;;;;;16.83;71.33;99576.66;5100591;28;20546;-63
2022/09/09 00:04:55;;;;;;;4.70;1.30;;;;;;;16.76;71.70;99584.72;5115369;28;20427;-64
2022/09/09 00:07:30;;;;;;;1.93;1.00;;;;;;;16.79;71.42;99573.53;5094929;28;20499;-64
2022/09/09 00:10:04;;;;;;;1.60;1.00;;;;;;;16.85;71.28;99575.47;5121884;28;20462;-64
2022/09/09 00:12:35;;;;;;;2.30;1.17;;;;;;;16.68;72.04;99579.47;5121529;28;20884;-63
2022/09/09 00:15:07;;;;;;;2.40;0.83;;;;;;;16.76;71.90;99577.44;5106255;28;20447;-64
2022/09/09 00:17:39;;;;;;;2.60;1.10;;;;;;;16.71;72.23;99563.69;5101387;28;20480;-64
2022/09/09 00:20:13;;;;;;;3.23;0.97;;;;;;;16.75;71.98;99577.63;5121528;28;20430;-64
2022/09/09 00:22:46;;;;;;;1.77;0.90;;;;;;;16.76;72.15;99571.22;5093421;28;20934;-63
2022/09/09 00:25:16;;;;;;;3.73;1.00;;;;;;;17.01;70.90;99574.34;5100266;28;20502;-64
2022/09/09 00:27:46;;;;;;;1.90;1.00;;;;;;;16.86;71.50;99574.44;5100615;28;20439;-64
2022/09/09 00:30:19;;;;;;;1.97;1.00;;;;;;;16.92;71.40;99584.44;5106578;28;20458;-66
2022/09/09 00:32:46;;;;;;;3.60;0.97;;;;;;;16.99;71.24;99573.66;5112638;28;20437;-64
2022/09/09 00:35:18;;;;;;;2.20;1.00;;;;;;;17.20;71.00;99580.84;5098830;28;20515;-65
2022/09/09 00:37:48;;;;;;;4.37;1.33;;;;;;;17.13;71.16;99572.72;5090561;28;20479;-65
2022/09/09 00:40:23;;;;;;;3.90;1.07;;;;;;;17.07;70.97;99575.38;5100544;28;20485;-65
2022/09/09 00:43:00;;;;;;;2.53;1.00;;;;;;;16.98;71.56;99573.88;5096677;28;20569;-63
2022/09/09 00:45:45;;;;;;;2.67;1.20;;;;;;;17.06;71.15;99573.72;5100154;28;20486;-64
2022/09/09 00:48:12;;;;;;;2.33;1.30;;;;;;;17.01;71.61;99568.06;5100096;28;20505;-64
2022/09/09 00:50:45;;;;;;;3.37;1.30;;;;;;;16.94;71.37;99565.31;5096934;28;20483;-64
2022/09/09 00:53:24;;;;;;;2.60;1.30;;;;;;;16.94;71.92;99571.59;5101071;28;20435;-64
2022/09/09 00:55:57;;;;;;;6.10;1.60;;;;;;;16.82;72.64;99570.44;5100405;28;20498;-63
2022/09/09 00:58:24;;;;;;;4.50;1.17;;;;;;;16.78;72.45;99568.31;5100588;28;20600;-64
2022/09/09 01:00:53;;;;;;;2.90;1.10;;;;;;;16.64;73.19;99568.22;5103323;28;20502;-63
2022/09/09 01:03:31;;;;;;;2.57;1.20;;;;;;;16.71;73.10;99566.41;5106283;28;20471;-63
2022/09/09 01:06:03;;;;;;;1.83;1.23;;;;;;;16.64;73.31;99567.41;5105655;28;20510;-65
2022/09/09 01:09:12;;;;;;;5.00;1.60;;;;;;;16.56;74.19;99563.81;5119386;28;20529;-65
2022/09/09 01:11:50;;;;;;;6.00;1.40;;;;;;;16.48;74.40;99563.16;5036061;28;20493;-65
2022/09/09 01:14:26;;;;;;;4.57;1.90;;;;;;;16.49;74.41;99562.09;5107741;28;20984;-66
2022/09/09 01:16:55;;;;;;;3.40;1.80;;;;;;;16.45;74.49;99563.53;5119356;28;20480;-65
2022/09/09 01:19:39;;;;;;;6.40;2.27;;;;;;;16.49;74.31;99562.09;5099994;28;20487;-65
2022/09/09 01:22:11;;;;;;;2.17;1.53;;;;;;;16.54;74.22;99556.94;5079217;28;20484;-65
2022/09/09 01:24:42;;;;;;;3.07;1.93;;;;;;;16.37;74.29;99559.13;5110425;28;20462;-64
2022/09/09 01:27:10;;;;;;;5.40;1.80;;;;;;;16.43;74.37;99562.91;5108221;28;20478;-64
2022/09/09 01:29:37;;;;;;;6.13;2.17;;;;;;;16.34;74.73;99570.28;5119520;28;20470;-64
2022/09/09 01:32:40;;;;;;;4.17;1.80;;;;;;;16.39;74.61;99570.53;5119305;27;20995;-64
2022/09/09 01:35:09;;;;;;;6.53;2.00;;;;;;;16.36;74.49;99573.63;5120286;28;20537;-63
2022/09/09 01:37:35;;;;;;;3.40;1.73;;;;;;;16.55;74.28;99572.13;5119747;28;20512;-64
2022/09/09 01:40:02;;;;;;;2.50;1.90;;;;;;;16.41;74.60;99573.88;5121463;28;20469;-64
2022/09/09 01:42:30;;;;;;;5.63;2.53;;;;;;;16.55;73.97;99570.25;5103498;28;20490;-64
2022/09/09 01:44:57;;;;;;;9.47;2.23;;;;;;;16.51;74.11;99579.78;5100346;28;20500;-65
2022/09/09 01:47:24;;;;;;;3.00;1.60;;;;;;;16.60;73.66;99566.13;5114971;28;20850;-64
2022/09/09 01:49:50;;;;;;;4.73;2.20;;;;;;;16.65;73.31;99567.22;5119056;28;20461;-64
2022/09/09 01:52:17;;;;;;;2.60;1.80;;;;;;;16.72;73.19;99559.16;5118553;28;20920;-64
2022/09/09 01:54:44;;;;;;;8.17;1.93;;;;;;;16.68;73.67;99568.66;5118831;28;20566;-64
2022/09/09 01:57:17;;;;;;;5.60;2.00;;;;;;;16.63;74.14;99573.81;5110831;28;20502;-64
2022/09/09 01:59:54;;;;;;;3.60;2.30;;;;;;;16.68;74.22;99563.28;5102987;28;20450;-64
2022/09/09 02:02:26;;;;;;;3.63;2.53;;;;;;;16.56;74.63;99566.53;5116544;28;20714;-65
2022/09/09 02:04:56;;;;;;;5.93;3.13;;;;;;;16.75;73.97;99569.53;5104603;28;20485;-66
2022/09/09 02:07:32;;;;;;;5.67;2.83;;;;;;;16.64;74.72;99567.41;5106381;28;20506;-66
2022/09/09 02:10:02;;;;;;;5.83;2.40;;;;;;;16.64;74.35;99568.22;5124410;28;20450;-65
2022/09/09 02:12:30;;;;;;;5.07;2.37;;;;;;;16.54;75.09;99575.84;5120253;28;20547;-65
2022/09/09 02:15:04;;;;;;;2.90;2.13;;;;;;;16.28;75.40;99571.06;5124559;28;20454;-65
2022/09/09 02:17:34;;;;;;;4.30;1.70;;;;;;;16.40;74.73;99577.59;5105903;28;20475;-66
2022/09/09 02:20:04;;;;;;;2.83;1.70;;;;;;;16.31;75.14;99579.59;5101929;28;20481;-66
2022/09/09 02:22:34;;;;;;;2.80;1.40;;;;;;;16.27;75.13;99575.63;5101154;28;20467;-65
2022/09/09 02:25:02;;;;;;;2.53;1.53;;;;;;;16.10;75.70;99580.44;5107920;28;20450;-65
2022/09/09 02:27:30;;;;;;;4.40;1.70;;;;;;;16.10;75.63;99577.75;5115605;28;20483;-66
2022/09/09 02:30:01;;;;;;;5.07;1.47;;;;;;;16.18;75.28;99577.63;5124178;28;20480;-65
2022/09/09 02:32:30;;;;;;;2.50;1.47;;;;;;;16.15;75.40;99578.00;5113885;28;20475;-66
2022/09/09 02:34:59;;;;;;;4.17;2.10;;;;;;;16.15;75.65;99574.47;5111171;28;20533;-66
2022/09/09 02:37:30;;;;;;;3.67;1.70;;;;;;;16.08;76.15;99574.41;5082914;28;20518;-66
2022/09/09 02:39:57;;;;;;;3.67;1.33;;;;;;;16.19;75.56;99581.16;5080386;28;20796;-66
2022/09/09 02:42:24;;;;;;;2.63;1.40;;;;;;;16.18;75.84;99585.72;5083298;28;20518;-63
2022/09/09 02:44:50;;;;;;;5.53;2.20;;;;;;;16.22;75.56;99577.25;5101485;28;20447;-66
2022/09/09 02:47:31;;;;;;;3.20;1.70;;;;;;;16.19;75.60;99583.84;5090217;28;20555;-65
2022/09/09 02:50:09;;;;;;;3.03;1.30;;;;;;;16.25;75.46;99577.69;5094482;28;20475;-65
2022/09/09 02:52:46;;;;;;;1.77;1.50;;;;;;;16.34;75.08;99587.31;5088993;28;20478;-65
2022/09/09 02:55:18;;;;;;;6.10;1.87;;;;;;;16.31;75.44;99590.38;5081835;28;20443;-65
2022/09/09 02:57:47;;;;;;;4.70;1.70;;;;;;;16.36;75.17;99590.63;5100437;28;20884;-65
2022/09/09 03:00:14;;;;;;;3.90;2.03;;;;;;;16.40;75.11;99590.25;5100179;28;20647;-65
2022/09/09 03:02:43;;;;;;;2.30;2.10;;;;;;;16.46;75.35;99589.50;5093085;28;20444;-65
2022/09/09 03:05:09;;;;;;;3.67;2.33;;;;;;;16.42;75.62;99589.00;5087331;28;20445;-65
2022/09/09 03:07:36;;;;;;;2.33;1.90;;;;;;;16.29;76.55;99589.75;5094265;28;20468;-65
2022/09/09 03:10:03;;;;;;;3.47;1.87;;;;;;;16.28;76.41;99596.16;5087453;28;20535;-65
2022/09/09 03:12:30;;;;;;;2.90;1.70;;;;;;;16.43;75.95;99592.56;5083193;28;20491;-65
2022/09/09 03:14:56;;;;;;;5.90;2.10;;;;;;;16.43;76.22;99592.56;5092188;28;20444;-65
2022/09/09 03:17:24;;;;;;;2.20;1.77;;;;;;;16.28;76.66;99590.75;5119615;28;20759;-65
2022/09/09 03:19:54;;;;;;;2.73;1.50;;;;;;;16.34;76.47;99597.28;5122341;28;20455;-65
2022/09/09 03:22:21;;;;;;;2.23;1.50;;;;;;;16.29;76.93;99597.00;5121495;28;21101;-65
2022/09/09 03:24:47;;;;;;;2.90;1.77;;;;;;;16.19;77.55;99594.63;5123005;28;20435;-65
2022/09/09 03:27:15;;;;;;;2.20;1.50;;;;;;;16.15;78.16;99593.38;5103775;28;20502;-64
2022/09/09 03:29:42;;;;;;;1.70;1.50;;;;;;;16.02;78.29;99591.34;5120012;28;20443;-65
2022/09/09 03:32:09;;;;;;;4.50;1.90;;;;;;;16.12;78.40;99589.19;5121872;28;20505;-65
2022/09/09 03:34:36;;;;;;;1.70;1.50;;;;;;;16.06;78.06;99589.09;5122419;28;20546;-65
2022/09/09 03:37:04;;;;;;;4.17;1.80;;;;;;;16.11;77.76;99589.38;5121710;28;20475;-65
2022/09/09 03:39:31;;;;;;;1.93;1.57;;;;;;;15.99;78.70;99589.91;5118840;28;20558;-65
2022/09/09 03:41:58;;;;;;;3.00;1.07;;;;;;;15.96;78.82;99589.44;5101904;28;20906;-65
2022/09/09 03:44:24;;;;;;;1.87;1.23;;;;;;;16.07;78.41;99588.09;5101963;28;20495;-65
2022/09/09 03:46:51;;;;;;;4.27;1.87;;;;;;;16.17;78.26;99585.91;5119715;28;20477;-65
2022/09/09 03:49:18;;;;;;;5.77;1.67;;;;;;;16.17;77.92;99589.44;5121795;28;20457;-65
2022/09/09 03:51:44;;;;;;;3.73;1.77;;;;;;;16.14;78.02;99587.16;5121609;28;20470;-65
2022/09/09 03:54:12;;;;;;;4.57;1.70;;;;;;;16.18;78.13;99580.31;5122332;28;20679;-65
2022/09/09 03:56:41;;;;;;;2.90;1.60;;;;;;;16.17;78.05;99583.22;5120808;28;20552;-64
2022/09/09 03:59:08;;;;;;;2.50;1.47;;;;;;;16.15;78.29;99579.88;5104593;28;20493;-64
2022/09/09 04:01:35;;;;;;;3.67;1.80;;;;;;;16.15;78.38;99578.00;5106360;28;20530;-67
2022/09/09 04:04:02;;;;;;;2.67;1.33;;;;;;;16.16;78.68;99578.84;5100571;28;20464;-67
2022/09/09 04:06:29;;;;;;;5.03;1.50;;;;;;;16.13;78.69;99579.25;5117951;28;21011;-67
2022/09/09 04:08:56;;;;;;;4.17;2.20;;;;;;;16.06;79.45;99581.00;5122528;28;20957;-67
2022/09/09 04:11:24;;;;;;;3.00;1.40;;;;;;;16.12;79.57;99582.94;5103587;28;20493;-67
2022/09/09 04:13:51;;;;;;;4.43;2.10;;;;;;;16.10;79.33;99582.31;5103000;28;20440;-65
2022/09/09 04:16:18;;;;;;;5.57;2.40;;;;;;;16.02;79.92;99580.56;5084008;28;20476;-66
2022/09/09 04:18:44;;;;;;;2.43;1.80;;;;;;;16.07;79.66;99585.41;5082057;28;20488;-67
2022/09/09 04:21:12;;;;;;;3.90;1.53;;;;;;;16.19;79.74;99589.25;5090500;28;20516;-67
2022/09/09 04:23:38;;;;;;;4.00;1.53;;;;;;;16.32;78.76;99591.25;5101115;28;20526;-67
2022/09/09 04:26:06;;;;;;;3.40;2.47;;;;;;;16.38;78.66;99593.16;5101130;28;20510;-66
2022/09/09 04:28:36;;;;;;;4.17;2.00;;;;;;;16.33;78.28;99591.03;5100300;28;20544;-67
2022/09/09 04:31:05;;;;;;;2.90;1.83;;;;;;;16.52;77.94;99594.91;5102245;28;20493;-66
2022/09/09 04:33:32;;;;;;;2.87;1.50;;;;;;;16.58;78.05;99590.63;5099412;28;20879;-67
2022/09/09 04:35:59;;;;;;;4.20;1.70;;;;;;;16.40;79.09;99601.03;5102390;28;20498;-66
2022/09/09 04:38:26;;;;;;;3.33;3.03;;;;;;;16.46;79.18;99594.88;5098303;28;20483;-65
2022/09/09 04:40:53;;;;;;;4.40;2.47;;;;;;;16.22;80.32;99585.34;5093000;28;20471;-66
2022/09/09 04:43:20;;;;;;;3.77;1.80;;;;;;;16.26;81.91;99595.53;5105928;28;20496;-66
2022/09/09 04:45:50;;;;;;;7.00;2.23;;;;;;;16.17;82.69;99592.13;5119307;28;20486;-67
2022/09/09 04:48:17;;;;;;;5.33;1.90;;;;;;;16.19;82.29;99594.63;5121562;28;20972;-67
2022/09/09 04:50:44;;;;;;;3.93;1.90;;;;;;;16.19;82.68;99591.94;5119214;28;20497;-67
2022/09/09 04:53:11;;;;;;;3.07;2.17;;;;;;;16.14;83.67;99595.22;5120174;28;20587;-67
2022/09/09 04:55:37;;;;;;;10.10;2.63;;;;;;;16.07;83.97;99590.78;5099662;28;20474;-67
2022/09/09 04:58:05;;;;;;;3.83;2.10;;;;;;;16.04;83.90;99599.25;5100592;28;20510;-67
2022/09/09 05:00:32;;;;;;;3.47;1.87;;;;;;;16.00;83.62;99593.41;5119607;28;20471;-67
2022/09/09 05:03:03;;;;;;;6.50;2.07;;;;;;;15.93;84.07;99590.66;5118248;28;20450;-67
2022/09/09 05:05:30;;;;;;;2.97;1.80;;;;;;;15.88;85.14;99601.16;5100276;28;20470;-67
2022/09/09 05:08:02;;;;;;;5.03;2.20;;;;;;;16.05;84.69;99600.94;5090012;28;20478;-67
2022/09/09 05:10:29;;;;;;;3.97;2.00;;;;;;;16.08;84.63;99605.94;5080171;28;20460;-67
2022/09/09 05:12:56;;;;;;;3.30;1.70;;;;;;;16.03;84.75;99608.38;5099061;28;20442;-65
2022/09/09 05:15:22;;;;;;;4.07;2.40;;;;;;;16.00;85.33;99614.97;5118435;28;20472;-66
2022/09/09 05:17:49;;;;;;;2.60;2.03;;;;;;;15.96;85.37;99616.41;5111993;28;21020;-67
2022/09/09 05:20:17;;;;;;;2.87;2.17;;;;;;;15.93;85.88;99616.78;5111369;28;20447;-66
2022/09/09 05:22:43;;;;;;;3.93;2.17;;;;;;;15.93;85.59;99612.22;5106148;28;20480;-66
2022/09/09 05:25:10;;;;;;;4.33;2.90;;;;;;;15.98;85.83;99601.69;5094021;28;20447;-66
2022/09/09 05:27:37;;;;;;;5.90;2.30;;;;;;;16.00;85.53;99610.44;5101071;28;20424;-66
2022/09/09 05:30:04;;;;;;;4.33;2.33;;;;;;;16.06;85.53;99610.69;5099453;28;20436;-66
2022/09/09 05:32:34;;;;;;;4.23;2.20;;;;;;;16.01;85.84;99603.19;5100138;28;20470;-67
2022/09/09 05:35:01;;;;;;;5.93;2.50;;;;;;;16.10;85.88;99602.03;5099798;28;21130;-67
2022/09/09 05:37:30;;;;;;;5.10;2.20;;;;;;;16.16;85.25;99605.81;5099086;28;20506;-67
2022/09/09 05:39:57;;;;;;;8.93;2.70;;;;;;;16.08;85.88;99600.56;5095356;28;20501;-66
2022/09/09 05:42:24;;;;;;;4.50;2.13;;;;;;;16.22;86.01;99610.44;5103144;28;20482;-67
2022/09/09 05:44:54;;;;;;;3.27;2.30;;;;;;;16.29;85.78;99607.81;5103360;28;20862;-66
2022/09/09 05:47:20;;;;;;;3.70;2.60;;;;;;;16.48;85.29;99615.22;5102931;28;20475;-67
2022/09/09 05:49:47;;;;;;;5.93;2.87;;;;;;;16.73;84.30;99614.78;5104291;28;20443;-67
2022/09/09 05:52:13;;;;;;;6.83;2.67;;;;;;;17.09;81.32;99613.84;5102213;28;20525;-67
2022/09/09 05:54:43;;;;;;;7.30;3.00;;;;;;;17.29;80.38;99608.53;5103707;28;20472;-67
2022/09/09 05:57:09;;;;;;;4.80;2.40;;;;;;;17.72;78.09;99611.00;5103121;28;20981;-66
2022/09/09 05:59:36;;;;;;;4.43;2.40;;;;;;;18.17;76.83;99613.22;5102809;28;20532;-66
2022/09/09 06:02:03;;;;;;;4.50;2.50;;;;;;;19.35;72.55;99610.63;5102889;28;20485;-66
2022/09/09 06:04:30;;;;;;;4.40;1.77;;;;;;;19.55;71.34;99613.28;5104111;28;20471;-66
2022/09/09 06:06:56;;;;;;;2.23;1.53;;;;;;;20.83;65.55;99608.72;5101722;28;20500;-67
2022/09/09 06:09:23;;;;;;;3.00;1.50;;;;;;;22.12;60.28;99615.16;5101312;28;20471;-67
2022/09/09 06:11:51;;;;;;;5.37;2.00;;;;;;;21.80;59.52;99607.22;5083063;28;20476;-66
2022/09/09 06:14:18;;;;;;;5.17;1.40;;;;;;;21.18;61.65;99610.03;5082106;28;20434;-66
2022/09/09 06:16:45;;;;;;;3.20;1.47;;;;;;;21.55;59.91;99610.88;5081174;28;21053;-66
2022/09/09 06:19:14;;;;;;;3.47;1.50;;;;;;;22.34;58.01;99612.72;5082097;28;20835;-66
2022/09/09 06:21:42;;;;;;;2.47;1.20;;;;;;;24.06;53.40;99606.97;5081914;28;20472;-66
2022/09/09 06:24:08;;;;;;;2.83;1.20;;;;;;;23.35;53.99;99606.38;5098126;28;20591;-66
2022/09/09 06:26:36;;;;;;;3.90;1.20;;;;;;;24.43;50.85;99601.09;5101906;28;20471;-67
2022/09/09 06:29:05;;;;;;;3.00;1.17;;;;;;;24.36;50.85;99605.88;5102359;28;20477;-66
2022/09/09 06:31:33;;;;;;;5.87;2.00;;;;;;;24.95;48.85;99606.28;5099990;28;20571;-66
2022/09/09 06:34:01;;;;;;;2.47;1.37;;;;;;;24.37;49.37;99594.72;5102670;28;20434;-66
2022/09/09 06:36:29;;;;;;;4.50;1.20;;;;;;;25.63;47.00;99603.38;5101640;28;20903;-66
2022/09/09 06:38:56;;;;;;;2.10;1.00;;;;;;;25.65;47.19;99590.25;5101660;28;20516;-66
2022/09/09 06:41:25;;;;;;;3.83;1.20;;;;;;;25.13;47.33;99604.34;5100134;28;20521;-66
2022/09/09 06:43:51;;;;;;;2.60;1.20;;;;;;;25.21;47.75;99600.34;5102322;28;20463;-66
2022/09/09 06:46:21;;;;;;;3.33;1.17;;;;;;;24.95;47.29;99594.53;5101817;28;20492;-67
2022/09/09 06:48:48;;;;;;;2.50;1.30;;;;;;;23.80;50.54;99603.75;5102967;28;20525;-66
2022/09/09 06:51:17;;;;;;;4.90;1.23;;;;;;;24.28;50.39;99604.38;5100263;28;20481;-66
2022/09/09 06:53:45;;;;;;;4.03;1.70;;;;;;;24.32;50.84;99612.91;5103019;28;20444;-66
2022/09/09 06:56:23;;;;;;;2.90;1.30;;;;;;;23.88;50.32;99606.09;5102196;28;20468;-66
2022/09/09 06:58:50;;;;;;;3.17;1.13;;;;;;;23.80;52.17;99611.09;5098778;28;20496;-67
2022/09/09 07:01:19;;;;;;;2.77;1.37;;;;;;;23.20;52.96;99618.63;5096949;28;20506;-67
2022/09/09 07:03:47;;;;;;;6.53;1.53;;;;;;;21.23;58.27;99616.47;5102394;28;20427;-66
2022/09/09 07:06:16;;;;;;;4.50;1.70;;;;;;;20.18;63.02;99614.44;5098684;28;20633;-66
2022/09/09 07:08:43;;;;;;;3.23;1.53;;;;;;;19.48;65.77;99614.38;5098438;28;20519;-65
2022/09/09 07:11:10;;;;;;;5.90;1.70;;;;;;;19.33;66.04;99617.31;5096830;28;20486;-66
2022/09/09 07:13:38;;;;;;;6.10;2.27;;;;;;;19.12;67.65;99619.25;5099301;28;20430;-65
2022/09/09 07:16:05;;;;;;;10.33;1.90;;;;;;;19.13;68.14;99623.63;5101458;28;21072;-65
2022/09/09 07:18:35;;;;;;;4.10;1.73;;;;;;;19.15;68.15;99616.13;5101086;28;20430;-65
2022/09/09 07:21:02;;;;;;;3.10;1.60;;;;;;;19.21;67.93;99629.88;5100992;28;20485;-65
2022/09/09 07:23:32;;;;;;;2.80;1.80;;;;;;;19.24;68.49;99626.75;5102189;28;21009;-65
2022/09/09 07:25:59;;;;;;;6.03;1.70;;;;;;;19.25;68.08;99628.38;5100978;28;20559;-65
2022/09/09 07:28:26;;;;;;;3.37;1.80;;;;;;;18.87;69.25;99638.06;5100973;28;20429;-64
2022/09/09 07:30:56;;;;;;;3.27;1.50;;;;;;;19.21;67.74;99633.41;5100977;28;20476;-64
2022/09/09 07:33:23;;;;;;;2.17;1.63;;;;;;;19.29;66.80;99635.06;5101796;28;21055;-64
2022/09/09 07:35:52;;;;;;;5.43;1.70;;;;;;;19.07;66.96;99639.91;5100157;28;20476;-64
2022/09/09 07:38:20;;;;;;;15.30;1.93;;;;;;;19.03;68.51;99642.19;5100966;28;20428;-65
2022/09/09 07:40:46;;;;;;;3.53;1.70;;;;;;;19.42;68.12;99635.00;5099690;28;20471;-65
2022/09/09 07:43:16;;;;;;;4.17;1.60;;;;;;;19.05;67.53;99637.41;5099959;28;20550;-65
2022/09/09 07:45:42;;;;;;;4.83;1.60;;;;;;;19.06;67.47;99635.50;5101020;28;20559;-64
2022/09/09 07:48:10;;;;;;;3.00;1.60;;;;;;;19.29;67.34;99635.91;5101545;28;20465;-65
2022/09/09 07:50:36;;;;;;;5.10;1.90;;;;;;;19.47;66.06;99634.38;5099933;28;20495;-65
2022/09/09 07:53:06;;;;;;;3.00;1.47;;;;;;;19.31;66.88;99631.09;5102025;28;20412;-65
2022/09/09 07:55:32;;;;;;;5.70;2.03;;;;;;;19.51;67.12;99632.88;5100971;28;20996;-65
2022/09/09 07:57:59;;;;;;;7.10;2.03;;;;;;;19.72;66.45;99637.19;5099883;28;20439;-65
2022/09/09 08:00:28;;;;;;;3.13;1.87;;;;;;;19.73;65.74;99631.53;5100764;27;20647;-66
2022/09/09 08:02:54;;;;;;;3.53;1.90;;;;;;;19.98;65.56;99630.84;5097270;28;20473;-65
2022/09/09 08:05:22;;;;;;;4.43;1.60;;;;;;;19.58;66.31;99628.28;5099897;28;20440;-65
2022/09/09 08:07:48;;;;;;;5.27;2.00;;;;;;;19.89;64.56;99624.84;5100405;28;20460;-65
2022/09/09 08:10:17;;;;;;;5.53;2.07;;;;;;;19.73;65.04;99636.97;5099850;28;20480;-64
2022/09/09 08:12:44;;;;;;;4.53;1.50;;;;;;;20.08;64.53;99628.47;5100498;28;20429;-65
2022/09/09 08:15:12;;;;;;;4.63;1.30;;;;;;;20.54;62.98;99620.25;5094797;28;20484;-65
2022/09/09 08:17:38;;;;;;;3.27;1.60;;;;;;;20.62;61.59;99623.53;5095832;28;20507;-65
2022/09/09 08:20:06;;;;;;;4.67;1.93;;;;;;;21.14;60.29;99625.94;5093050;28;20515;-65
2022/09/09 08:22:34;;;;;;;3.60;1.80;;;;;;;21.24;60.28;99625.44;5093677;28;20792;-65
2022/09/09 08:25:02;;;;;;;8.90;1.67;;;;;;;21.56;59.29;99622.59;5101163;28;20460;-65
2022/09/09 08:27:29;;;;;;;3.67;1.60;;;;;;;21.35;59.99;99627.41;5098827;28;20472;-65
2022/09/09 08:29:56;;;;;;;4.60;1.40;;;;;;;21.97;57.31;99621.00;5100747;28;20989;-65
2022/09/09 08:32:23;;;;;;;7.53;2.20;;;;;;;21.93;56.33;99633.44;5100189;28;20560;-65
2022/09/09 08:34:51;;;;;;;3.37;1.70;;;;;;;24.24;52.38;99636.00;5100666;28;20440;-65
2022/09/09 08:37:17;;;;;;;6.53;1.67;;;;;;;24.79;49.06;99624.38;5099615;28;20473;-65
2022/09/09 08:39:44;;;;;;;5.87;1.60;;;;;;;25.20;47.92;99637.81;5099859;28;20505;-65
2022/09/09 08:42:33;;;;;;;3.80;1.83;;;;;;;26.07;46.40;99635.38;5099299;28;20517;-65
2022/09/09 08:45:35;;;;;;;3.83;1.67;;;;;;;27.95;41.80;99636.13;5093955;28;20459;-65
2022/09/09 08:48:14;;;;;;;7.60;2.80;;;;;;;26.44;42.92;99640.09;5089285;28;20537;-65
2022/09/09 08:50:42;;;;;;;4.83;1.07;;;;;;;27.60;41.24;99641.22;5100059;28;20782;-65
2022/09/09 08:53:13;;;;;;;5.53;1.50;;;;;;;25.66;45.81;99635.72;5096574;28;20974;-65
2022/09/09 08:55:44;;;;;;;3.73;1.33;;;;;;;24.16;48.93;99633.66;5099533;28;20847;-65
2022/09/09 08:58:14;;;;;;;3.97;1.40;;;;;;;24.66;48.31;99649.31;5099763;28;20465;-65
2022/09/09 09:00:50;;;;;;;4.57;1.80;;;;;;;24.09;48.83;99635.72;5100064;28;20490;-65
2022/09/09 09:03:23;;;;;;;3.23;1.00;;;;;;;24.94;47.07;99636.63;5099644;28;20471;-65
2022/09/09 09:05:58;;;;;;;5.53;1.57;;;;;;;24.67;47.01;99640.03;5099045;28;20677;-65
2022/09/09 09:08:30;;;;;;;6.03;1.00;;;;;;;26.14;44.29;99635.16;5096585;28;20468;-65
2022/09/09 09:11:00;;;;;;;3.43;1.00;;;;;;;26.47;42.92;99648.66;5098945;28;20503;-65
2022/09/09 09:13:33;;;;;;;5.57;1.13;;;;;;;26.22;43.17;99638.25;5099340;28;20934;-65
2022/09/09 09:16:04;;;;;;;6.57;1.90;;;;;;;26.07;42.62;99632.63;5099516;28;20894;-65
2022/09/09 09:18:33;;;;;;;5.17;1.27;;;;;;;26.41;42.54;99635.97;5098932;28;20466;-65
2022/09/09 09:21:07;;;;;;;3.97;1.30;;;;;;;27.55;40.76;99649.44;5099979;28;20493;-65
2022/09/09 09:23:41;;;;;;;6.10;1.00;;;;;;;24.25;46.47;99640.38;5099992;28;20503;-64
2022/09/09 09:26:10;;;;;;;3.37;1.30;;;;;;;22.58;51.33;99651.75;5098435;28;20917;-64
2022/09/09 09:28:39;;;;;;;5.17;1.20;;;;;;;22.21;52.54;99654.59;5100034;28;20437;-64
2022/09/09 09:31:08;;;;;;;5.93;1.40;;;;;;;22.60;51.71;99648.78;5099625;28;20478;-64
2022/09/09 09:33:37;;;;;;;4.60;1.20;;;;;;;23.34;50.92;99646.47;5098896;28;20446;-64
2022/09/09 09:36:07;;;;;;;2.50;1.13;;;;;;;22.25;51.66;99639.44;5099582;28;20575;-64
2022/09/09 09:38:34;;;;;;;4.33;1.30;;;;;;;22.38;52.11;99641.19;5099294;28;20437;-64
2022/09/09 09:41:02;;;;;;;3.37;1.30;;;;;;;22.51;51.03;99629.25;5098635;28;20484;-64
2022/09/09 09:43:30;;;;;;;2.83;0.87;;;;;;;23.67;49.05;99637.59;5099942;28;20440;-64
2022/09/09 09:45:58;;;;;;;3.60;0.97;;;;;;;24.47;46.49;99643.22;5098904;28;20475;-65
2022/09/09 09:48:26;;;;;;;2.10;1.10;;;;;;;25.66;43.44;99632.16;5098609;28;20463;-65
2022/09/09 09:50:54;;;;;;;7.63;1.17;;;;;;;24.17;46.33;99635.31;5099446;28;20516;-64
2022/09/09 09:53:24;;;;;;;3.50;1.03;;;;;;;22.93;48.88;99649.06;5099687;28;20430;-64
2022/09/09 09:55:56;;;;;;;3.10;1.00;;;;;;;22.11;51.13;99637.97;5098698;28;20504;-64
2022/09/09 09:58:24;;;;;;;2.07;0.80;;;;;;;21.58;53.11;99643.06;5099414;28;20442;-64
2022/09/09 10:00:52;;;;;;;3.57;1.40;;;;;;;20.98;55.13;99643.69;5099174;28;20477;-62
2022/09/09 10:03:26;;;;;;;3.27;1.53;;;;;;;20.68;56.22;99646.25;5098709;28;20433;-62
2022/09/09 10:05:54;;;;;;;4.13;1.40;;;;;;;20.55;56.99;99654.47;5092503;28;20522;-62
2022/09/09 10:08:21;;;;;;;3.63;1.00;;;;;;;20.71;57.19;99650.41;5099432;28;20428;-63
2022/09/09 10:11:00;;;;;;;4.73;1.50;;;;;;;21.21;55.48;99651.22;5098308;28;20472;-63
2022/09/09 10:13:32;;;;;;;6.23;1.40;;;;;;;21.75;52.73;99643.28;5099859;28;20452;-63
2022/09/09 10:16:09;;;;;;;3.90;1.37;;;;;;;22.82;49.38;99636.25;5098663;28;20479;-63
2022/09/09 10:18:58;;;;;;;5.27;1.20;;;;;;;24.27;46.18;99635.50;5097554;28;20464;-63
2022/09/09 10:21:45;;;;;;;3.00;1.07;;;;;;;24.81;44.08;99627.69;5099137;28;20492;-63
2022/09/09 10:24:45;;;;;;;2.97;1.13;;;;;;;26.91;39.11;99633.94;5100496;28;20434;-63
2022/09/09 10:27:17;;;;;;;4.17;1.30;;;;;;;26.04;39.68;99630.41;5095443;28;20573;-63
2022/09/09 10:30:02;;;;;;;2.33;0.93;;;;;;;26.47;38.73;99634.94;5103760;28;20448;-63
2022/09/09 10:32:40;;;;;;;2.17;0.90;;;;;;;26.96;38.75;99633.13;5101809;28;20477;-64
2022/09/09 10:35:14;;;;;;;4.00;1.27;;;;;;;25.78;40.00;99635.59;5103078;28;20475;-64
2022/09/09 10:37:50;;;;;;;3.17;1.43;;;;;;;25.68;41.36;99633.53;5100818;28;20482;-64
2022/09/09 10:40:30;;;;;;;2.73;0.87;;;;;;;26.56;40.60;99627.06;5101708;28;20520;-65
2022/09/09 10:43:01;;;;;;;5.50;1.50;;;;;;;26.38;39.56;99624.72;5103442;28;20491;-65
2022/09/09 10:45:34;;;;;;;5.33;1.10;;;;;;;27.15;38.02;99628.88;5102425;28;20610;-64
2022/09/09 10:48:14;;;;;;;5.03;1.17;;;;;;;26.40;38.38;99617.03;5101937;28;20457;-64
2022/09/09 10:50:56;;;;;;;3.40;1.30;;;;;;;27.00;38.49;99637.00;5102940;28;20470;-64
2022/09/09 10:53:31;;;;;;;4.17;1.30;;;;;;;25.54;40.17;99624.88;5103082;28;20477;-64
2022/09/09 10:56:01;;;;;;;2.57;1.40;;;;;;;25.70;39.72;99614.94;5102001;28;20477;-64
2022/09/09 10:58:32;;;;;;;3.33;1.17;;;;;;;27.53;37.00;99623.31;5096503;28;20449;-64
2022/09/09 11:01:02;;;;;;;8.07;1.20;;;;;;;26.65;38.32;99628.25;5101943;28;20475;-64
2022/09/09 11:03:30;;;;;;;4.10;1.20;;;;;;;26.54;37.89;99626.47;5102380;28;20465;-64
2022/09/09 11:06:01;;;;;;;2.87;1.10;;;;;;;26.98;37.01;99631.78;5102957;28;20470;-64
2022/09/09 11:08:30;;;;;;;8.00;1.47;;;;;;;27.10;38.12;99630.75;5102579;28;20436;-64
2022/09/09 11:11:01;;;;;;;3.47;1.20;;;;;;;26.60;38.10;99627.38;5101534;28;20478;-64
2022/09/09 11:13:33;;;;;;;3.77;1.33;;;;;;;27.20;37.10;99631.66;5103252;28;20473;-64
2022/09/09 11:16:04;;;;;;;2.70;0.73;;;;;;;27.26;35.62;99627.00;5102078;28;20474;-64
2022/09/09 11:18:32;;;;;;;3.20;0.80;;;;;;;26.19;38.78;99624.25;5101273;28;20461;-64
2022/09/09 11:21:03;;;;;;;4.37;1.20;;;;;;;28.16;36.07;99626.84;5102396;28;20547;-64
2022/09/09 11:23:38;;;;;;;2.90;0.90;;;;;;;27.45;36.15;99621.06;5102469;28;20437;-64
2022/09/09 11:26:07;;;;;;;8.27;1.77;;;;;;;25.91;38.94;99610.53;5099728;28;20478;-64
2022/09/09 11:28:44;;;;;;;5.20;1.23;;;;;;;25.59;39.40;99623.28;5102201;28;20444;-64
2022/09/09 11:31:23;;;;;;;3.20;1.20;;;;;;;25.29;39.60;99628.13;5081735;28;20509;-64
2022/09/09 11:33:59;;;;;;;6.33;1.03;;;;;;;26.07;38.59;99627.97;5082445;28;20894;-64
2022/09/09 11:36:45;;;;;;;2.80;0.80;;;;;;;26.49;37.74;99629.19;5081467;28;20482;-64
2022/09/09 11:39:36;;;;;;;2.43;0.90;;;;;;;25.66;40.05;99621.22;5079826;28;20498;-64
2022/09/09 11:42:07;;;;;;;5.87;0.80;;;;;;;26.38;38.65;99622.78;5081412;28;20553;-64
2022/09/09 11:44:34;;;;;;;3.03;1.07;;;;;;;26.13;38.41;99617.91;5087066;28;20508;-64
2022/09/09 11:47:01;;;;;;;3.90;1.10;;;;;;;25.82;39.11;99623.03;5100141;28;20513;-64
2022/09/09 11:49:31;;;;;;;4.97;1.67;;;;;;;26.80;39.02;99624.78;5101052;28;20464;-64